Time;durP1;ratioP1;P1;durP2;ratioP2;P2;SDS_P1;SDS_P2;PMS_P1;PMS_P2;Temp;Humidity;BMP_temperature;BMP_pressure;BME280_temperature;BME280_humidity;BME280_pressure;Samples;Min_cycle;Max_cycle;Signal;HPM_P1;HPM_P2
2022/08/23 00:00:59;;;;;;;11.65;8.57;;;16.80;99.90;;;;;;4880199;28;95833;-33
2022/08/23 00:03:25;;;;;;;9.25;7.68;;;16.70;99.90;;;;;;4879565;28;94541;-35
2022/08/23 00:05:51;;;;;;;10.07;8.43;;;16.70;99.90;;;;;;4880723;28;93402;-32
2022/08/23 00:08:16;;;;;;;11.30;8.38;;;16.60;99.90;;;;;;4879530;28;94831;-32
2022/08/23 00:10:42;;;;;;;10.40;8.52;;;16.60;99.90;;;;;;4880089;28;94729;-34
2022/08/23 00:13:09;;;;;;;9.95;8.02;;;16.50;99.90;;;;;;4879785;28;93535;-36
2022/08/23 00:15:34;;;;;;;11.50;8.27;;;16.50;99.90;;;;;;4879764;28;92375;-34
2022/08/23 00:18:00;;;;;;;10.10;9.00;;;16.40;99.90;;;;;;4879607;28;95672;-34
2022/08/23 00:20:26;;;;;;;11.88;7.55;;;16.40;99.90;;;;;;4879414;28;95617;-31
2022/08/23 00:22:52;;;;;;;15.90;8.50;;;16.40;99.90;;;;;;4880452;28;93338;-33
2022/08/23 00:25:17;;;;;;;14.05;7.40;;;16.40;99.90;;;;;;4879587;28;93226;-34
2022/08/23 00:27:43;;;;;;;11.48;8.13;;;16.40;99.90;;;;;;4929966;23;95339;-30
2022/08/23 00:30:11;;;;;;;11.00;9.82;;;16.40;99.90;;;;;;4936985;28;93961;-32
2022/08/23 00:32:38;;;;;;;;;;;16.40;99.90;;;;;;4923502;28;94176;-32
2022/08/23 00:35:04;;;;;;;14.15;9.23;;;16.40;99.90;;;;;;4925444;28;91421;-31
2022/08/23 00:37:31;;;;;;;15.20;10.75;;;16.40;99.90;;;;;;4937669;28;94618;-30
2022/08/23 00:39:57;;;;;;;11.48;8.55;;;16.40;99.90;;;;;;4937067;28;93651;-29
2022/08/23 00:48:06;;;;;;;9.30;8.50;;;16.40;99.90;;;;;;4931677;28;94041;-31
2022/08/23 00:51:08;;;;;;;12.82;9.68;;;16.40;99.90;;;;;;4924729;28;94744;-29
2022/08/23 00:53:38;;;;;;;11.77;10.00;;;16.40;99.90;;;;;;4927193;28;92883;-31
2022/08/23 00:56:11;;;;;;;11.45;9.05;;;16.40;99.90;;;;;;4937291;28;94921;-29
2022/08/23 00:58:37;;;;;;;12.45;8.95;;;16.30;99.90;;;;;;4927765;28;94649;-31
2022/08/23 01:01:05;;;;;;;9.38;8.48;;;16.30;99.90;;;;;;4932231;28;94563;-29
2022/08/23 01:03:33;;;;;;;8.75;7.97;;;16.20;99.90;;;;;;4937771;28;92812;-32
2022/08/23 01:06:02;;;;;;;;;;;16.20;99.90;;;;;;4938425;28;92759;-30
2022/08/23 01:08:30;;;;;;;7.70;6.80;;;16.00;99.90;;;;;;4924658;28;95817;-31
2022/08/23 01:10:59;;;;;;;;;;;15.90;99.90;;;;;;4937444;28;95478;-29
2022/08/23 01:13:34;;;;;;;8.55;7.38;;;15.80;99.90;;;;;;4938398;28;94429;-29
2022/08/23 01:16:21;;;;;;;8.65;7.55;;;15.70;99.90;;;;;;4926186;28;93266;-31
2022/08/23 01:18:48;;;;;;;9.07;6.72;;;15.60;99.90;;;;;;4924325;28;94795;-31
2022/08/23 01:21:22;;;;;;;7.63;7.03;;;15.60;99.90;;;;;;4936542;28;94173;-32
2022/08/23 01:23:52;;;;;;;8.50;7.65;;;15.60;99.90;;;;;;4937862;28;92223;-28
2022/08/23 01:26:20;;;;;;;7.93;7.13;;;15.60;99.90;;;;;;4937769;28;93514;-31
2022/08/23 01:28:46;;;;;;;10.65;8.50;;;15.60;99.90;;;;;;4936796;28;95207;-30
2022/08/23 01:31:13;;;;;;;11.00;9.90;;;15.50;99.90;;;;;;4936747;28;94409;-33
2022/08/23 01:33:41;;;;;;;8.47;7.77;;;15.50;99.90;;;;;;4935908;28;93814;-34
2022/08/23 01:36:10;;;;;;;8.25;7.35;;;15.50;99.90;;;;;;4937148;28;94452;-33
2022/08/23 01:38:37;;;;;;;9.35;8.48;;;15.50;99.90;;;;;;4936898;28;95106;-30
2022/08/23 01:41:03;;;;;;;15.27;10.25;;;15.50;99.90;;;;;;4936818;28;94866;-31
2022/08/23 01:43:29;;;;;;;18.63;10.57;;;15.50;99.90;;;;;;4939330;28;93306;-31
2022/08/23 01:45:54;;;;;;;12.57;10.23;;;15.50;99.90;;;;;;4938619;28;94574;-30
2022/08/23 01:48:21;;;;;;;13.65;10.20;;;15.50;99.90;;;;;;4938921;28;93602;-31
2022/08/23 01:50:47;;;;;;;12.93;9.83;;;15.60;99.90;;;;;;4925468;28;94560;-34
2022/08/23 01:53:13;;;;;;;14.55;11.65;;;15.50;99.90;;;;;;4940912;28;93949;-33
2022/08/23 01:55:41;;;;;;;21.45;13.13;;;15.60;99.90;;;;;;4939082;28;92707;-29
2022/08/23 01:58:07;;;;;;;15.90;11.35;;;15.60;99.90;;;;;;4937322;28;97493;-34
2022/08/23 02:00:38;;;;;;;19.80;15.45;;;15.60;99.90;;;;;;4938941;28;95247;-33
2022/08/23 02:03:04;;;;;;;22.27;12.73;;;15.60;99.90;;;;;;4939979;28;94317;-31
2022/08/23 02:05:31;;;;;;;16.80;13.30;;;15.70;99.90;;;;;;4939396;28;93022;-31
2022/08/23 02:08:59;;;;;;;19.95;14.65;;;15.70;99.90;;;;;;4938872;28;94698;-30
2022/08/23 02:10:43;;;;;;;22.92;14.75;;;15.70;99.90;;;;;;4938690;28;94812;-33
2022/08/23 02:13:09;;;;;;;17.45;15.68;;;15.70;99.90;;;;;;4938727;28;93788;-33
2022/08/23 02:15:34;;;;;;;18.50;13.50;;;15.70;99.90;;;;;;4939124;28;91985;-34
2022/08/23 02:18:00;;;;;;;13.98;12.48;;;15.70;99.90;;;;;;4939106;28;94512;-29
2022/08/23 02:20:26;;;;;;;18.50;12.98;;;15.70;99.90;;;;;;4938538;28;94434;-34
2022/08/23 02:22:51;;;;;;;15.82;12.20;;;15.70;99.90;;;;;;4939032;28;93757;-30
2022/08/23 02:25:17;;;;;;;16.73;13.27;;;15.80;99.90;;;;;;4937967;28;93195;-32
2022/08/23 02:27:42;;;;;;;18.67;16.48;;;15.70;99.90;;;;;;4938824;28;95193;-30
2022/08/23 02:30:08;;;;;;;15.02;12.45;;;15.70;99.90;;;;;;4934835;28;96028;-30
2022/08/23 02:32:34;;;;;;;8.00;7.20;;;15.70;99.90;;;;;;4930170;28;92122;-30
2022/08/23 02:35:00;;;;;;;7.78;7.13;;;15.60;99.90;;;;;;4939522;28;94337;-30
2022/08/23 02:37:26;;;;;;;8.35;7.65;;;15.50;99.90;;;;;;4939050;28;95138;-31
2022/08/23 02:39:51;;;;;;;10.95;8.18;;;15.40;99.90;;;;;;4939320;28;94254;-34
2022/08/23 02:42:17;;;;;;;16.13;9.38;;;15.30;99.90;;;;;;4939770;28;94104;-32
2022/08/23 02:44:43;;;;;;;8.98;7.63;;;15.30;99.90;;;;;;4939482;28;94262;-35
2022/08/23 02:47:10;;;;;;;11.82;10.48;;;15.40;99.90;;;;;;4938521;28;94495;-30
2022/08/23 02:49:36;;;;;;;13.32;11.93;;;15.40;99.90;;;;;;4930884;28;95343;-30
2022/08/23 02:52:03;;;;;;;22.05;14.02;;;15.40;99.90;;;;;;4932630;28;92168;-28
2022/08/23 02:54:29;;;;;;;16.63;14.13;;;15.50;99.90;;;;;;4937610;28;94447;-33
2022/08/23 02:56:54;;;;;;;14.38;12.93;;;15.50;99.90;;;;;;4938407;28;94917;-30
2022/08/23 02:59:20;;;;;;;9.07;8.27;;;15.50;99.90;;;;;;4937798;28;93500;-33
2022/08/23 03:01:46;;;;;;;7.70;6.95;;;15.50;99.90;;;;;;4939224;28;93331;-31
2022/08/23 03:04:11;;;;;;;8.18;7.15;;;15.40;99.90;;;;;;4939287;28;93614;-35
2022/08/23 03:06:37;;;;;;;11.82;10.70;;;15.10;99.90;;;;;;4939331;28;95027;-30
2022/08/23 03:09:05;;;;;;;11.32;10.30;;;15.10;99.90;;;;;;4938175;28;94892;-32
2022/08/23 03:11:30;;;;;;;9.85;8.68;;;15.00;99.90;;;;;;4937997;28;94178;-28
2022/08/23 03:13:56;;;;;;;11.88;8.18;;;14.90;99.90;;;;;;4939382;28;94408;-29
2022/08/23 03:16:23;;;;;;;10.48;8.40;;;14.90;99.90;;;;;;4938738;28;93685;-30
2022/08/23 03:18:50;;;;;;;10.57;8.98;;;14.90;99.90;;;;;;4938837;28;94531;-34
2022/08/23 03:21:17;;;;;;;10.20;9.30;;;14.90;99.90;;;;;;4937007;28;95344;-29
2022/08/23 03:23:43;;;;;;;12.30;10.40;;;14.90;99.90;;;;;;4927388;28;94198;-31
2022/08/23 03:26:11;;;;;;;10.60;9.60;;;14.90;99.90;;;;;;4937981;28;94773;-33
2022/08/23 03:28:39;;;;;;;10.40;9.27;;;14.90;99.90;;;;;;4938891;28;94275;-33
2022/08/23 03:31:06;;;;;;;13.27;9.38;;;14.90;99.90;;;;;;4939811;28;94220;-30
2022/08/23 03:33:33;;;;;;;11.35;9.88;;;14.80;99.90;;;;;;4937572;28;93530;-34
2022/08/23 03:36:00;;;;;;;10.48;9.43;;;14.70;99.90;;;;;;4937611;28;96156;-35
2022/08/23 03:38:26;;;;;;;10.73;9.07;;;14.70;99.90;;;;;;4938481;28;95582;-31
2022/08/23 03:40:52;;;;;;;9.32;8.43;;;14.60;99.90;;;;;;4939166;28;93372;-31
2022/08/23 03:43:19;;;;;;;10.52;9.52;;;14.50;99.90;;;;;;4937953;28;93807;-33
2022/08/23 03:45:45;;;;;;;9.77;8.80;;;14.50;99.90;;;;;;4938210;28;95190;-32
2022/08/23 03:48:11;;;;;;;12.23;10.20;;;14.40;99.90;;;;;;4938500;28;93250;-31
2022/08/23 03:50:36;;;;;;;10.40;9.43;;;14.40;99.90;;;;;;4924399;28;93670;-34
2022/08/23 03:53:03;;;;;;;10.40;9.50;;;14.40;99.90;;;;;;4939472;28;93352;-31
2022/08/23 03:55:29;;;;;;;13.25;10.80;;;14.30;99.90;;;;;;4937684;28;94341;-32
2022/08/23 03:57:54;;;;;;;17.45;11.50;;;14.30;99.90;;;;;;4937139;28;95282;-30
2022/08/23 04:00:21;;;;;;;17.02;11.30;;;14.10;99.90;;;;;;4936582;28;95243;-30
2022/08/23 04:02:46;;;;;;;11.65;10.55;;;14.00;99.90;;;;;;4937374;28;92496;-32
2022/08/23 04:05:12;;;;;;;10.63;9.63;;;13.90;99.90;;;;;;4937034;28;96288;-33
2022/08/23 04:07:38;;;;;;;14.82;11.45;;;13.90;99.90;;;;;;4937559;28;94661;-32
2022/08/23 04:10:07;;;;;;;11.02;9.93;;;13.90;99.90;;;;;;4938107;28;93476;-31
2022/08/23 04:12:32;;;;;;;13.02;11.38;;;13.80;99.90;;;;;;4937577;28;93703;-33
2022/08/23 04:14:58;;;;;;;10.95;9.93;;;13.90;99.90;;;;;;4936712;28;94838;-31
2022/08/23 04:17:24;;;;;;;11.82;10.18;;;13.80;99.90;;;;;;4938913;28;94448;-36
2022/08/23 04:19:50;;;;;;;13.65;10.40;;;13.80;99.90;;;;;;4937579;28;92188;-33
2022/08/23 04:22:17;;;;;;;12.73;11.45;;;13.80;99.90;;;;;;4937007;28;95413;-34
2022/08/23 04:24:44;;;;;;;10.63;9.63;;;13.70;99.90;;;;;;4936845;28;94722;-33
2022/08/23 04:27:11;;;;;;;11.18;10.20;;;13.80;99.90;;;;;;4937542;28;96272;-34
2022/08/23 04:29:38;;;;;;;11.60;10.50;;;13.80;99.90;;;;;;4936948;28;92150;-32
2022/08/23 04:32:06;;;;;;;9.70;8.80;;;13.80;99.90;;;;;;4937497;28;93199;-34
2022/08/23 04:34:33;;;;;;;12.63;11.37;;;13.90;99.90;;;;;;4937778;28;95231;-32
2022/08/23 04:36:59;;;;;;;12.02;10.73;;;13.90;99.90;;;;;;4936603;28;94629;-31
2022/08/23 04:39:25;;;;;;;10.93;9.82;;;13.90;99.90;;;;;;4936642;28;94649;-36
2022/08/23 04:44:35;;;;;;;9.90;9.00;;;14.00;99.90;;;;;;4937059;28;94114;-29
2022/08/23 04:47:01;;;;;;;11.57;10.40;;;14.00;99.90;;;;;;4937700;28;95298;-32
2022/08/23 04:49:27;;;;;;;10.57;9.57;;;14.00;99.90;;;;;;4930011;28;95239;-30
2022/08/23 04:51:52;;;;;;;10.90;9.90;;;14.10;99.90;;;;;;4929699;28;93954;-35
2022/08/23 04:54:18;;;;;;;13.00;10.48;;;14.20;99.90;;;;;;4937629;28;95116;-31
2022/08/23 04:56:44;;;;;;;11.32;10.02;;;14.20;99.90;;;;;;4936966;28;94598;-31
2022/08/23 04:59:10;;;;;;;10.68;9.57;;;14.30;99.90;;;;;;4936976;28;93722;-33
2022/08/23 05:01:35;;;;;;;16.33;14.60;;;14.40;99.90;;;;;;4936759;28;92965;-32
2022/08/23 05:04:02;;;;;;;17.48;14.75;;;14.50;99.90;;;;;;4936022;28;94737;-33
2022/08/23 05:06:30;;;;;;;14.57;13.07;;;14.50;99.90;;;;;;4937569;28;94528;-31
2022/08/23 05:08:56;;;;;;;18.33;15.93;;;14.70;99.90;;;;;;4937359;28;92707;-32
2022/08/23 05:11:21;;;;;;;17.98;16.17;;;14.70;99.90;;;;;;4935801;28;94596;-35
2022/08/23 05:13:47;;;;;;;18.52;16.58;;;14.80;99.90;;;;;;4936306;28;95529;-31
2022/08/23 05:16:13;;;;;;;17.17;15.43;;;14.90;99.90;;;;;;4936198;28;95507;-34
2022/08/23 05:18:38;;;;;;;14.65;13.18;;;15.00;99.90;;;;;;4941302;28;93870;-34
2022/08/23 05:21:04;;;;;;;14.93;13.43;;;15.00;99.90;;;;;;4938273;28;93020;-35
2022/08/23 05:23:30;;;;;;;19.40;15.02;;;15.00;99.90;;;;;;4939631;28;94640;-32
2022/08/23 05:25:56;;;;;;;16.00;14.50;;;15.10;99.90;;;;;;4939954;28;94777;-32
2022/08/23 05:28:28;;;;;;;15.18;13.68;;;15.10;99.90;;;;;;4939559;28;94451;-34
2022/08/23 05:31:05;;;;;;;16.42;13.60;;;15.20;99.90;;;;;;4940552;28;93430;-34
2022/08/23 05:33:32;;;;;;;17.52;15.82;;;15.30;99.90;;;;;;4939119;28;94289;-34
2022/08/23 05:35:58;;;;;;;16.67;15.15;;;15.40;99.90;;;;;;4939454;28;94447;-32
2022/08/23 05:38:24;;;;;;;15.60;14.18;;;15.50;99.90;;;;;;4939030;28;94293;-32
2022/08/23 05:40:51;;;;;;;14.90;13.38;;;15.50;99.90;;;;;;4939763;28;94543;-32
2022/08/23 05:43:18;;;;;;;18.63;17.00;;;15.60;99.90;;;;;;4940022;28;94737;-34
2022/08/23 05:45:44;;;;;;;16.15;14.65;;;15.70;99.90;;;;;;4940082;28;94842;-33
2022/08/23 05:48:10;;;;;;;15.80;14.40;;;15.70;99.90;;;;;;4930486;28;94311;-32
2022/08/23 05:50:37;;;;;;;17.70;15.95;;;15.80;99.90;;;;;;4920760;28;94269;-33
2022/08/23 05:53:03;;;;;;;16.87;15.33;;;15.80;99.90;;;;;;4920220;28;95434;-31
2022/08/23 05:55:28;;;;;;;17.48;15.70;;;15.90;99.90;;;;;;4933814;28;94657;-34
2022/08/23 05:57:54;;;;;;;17.75;16.13;;;15.90;99.90;;;;;;4939556;28;92996;-32
2022/08/23 06:00:20;;;;;;;17.58;15.82;;;15.90;99.90;;;;;;4939063;28;93760;-33
2022/08/23 06:02:47;;;;;;;20.70;18.48;;;16.00;99.90;;;;;;4939954;28;96069;-32
2022/08/23 06:05:14;;;;;;;17.67;16.05;;;16.00;99.90;;;;;;4927451;28;95402;-34
2022/08/23 06:07:40;;;;;;;19.70;17.85;;;16.10;99.90;;;;;;4924929;28;93558;-35
2022/08/23 06:10:07;;;;;;;18.63;16.90;;;16.20;99.90;;;;;;4919762;28;93766;-37
2022/08/23 06:12:33;;;;;;;31.98;20.00;;;16.20;99.90;;;;;;4919727;28;94710;-35
2022/08/23 06:15:00;;;;;;;23.98;18.60;;;16.30;99.90;;;;;;4938944;28;94424;-32
2022/08/23 06:17:26;;;;;;;18.45;16.88;;;16.40;99.90;;;;;;4939433;28;92532;-31
2022/08/23 06:19:51;;;;;;;21.25;19.10;;;16.40;99.90;;;;;;4940194;28;94106;-30
2022/08/23 06:22:17;;;;;;;22.52;20.20;;;16.50;99.90;;;;;;4938425;28;94581;-32
2022/08/23 06:24:43;;;;;;;21.75;19.85;;;16.60;99.90;;;;;;4938641;28;94555;-33
2022/08/23 06:27:10;;;;;;;21.83;19.70;;;16.60;99.90;;;;;;4938262;28;93092;-32
2022/08/23 06:29:37;;;;;;;21.83;19.60;;;16.70;99.90;;;;;;4937985;28;93507;-32
2022/08/23 06:32:03;;;;;;;21.30;19.30;;;16.70;99.90;;;;;;4944405;28;94740;-32
2022/08/23 06:34:33;;;;;;;22.25;20.25;;;16.70;99.90;;;;;;4948649;28;94515;-32
2022/08/23 06:37:10;;;;;;;20.05;18.35;;;16.80;99.90;;;;;;4946617;28;92824;-30
2022/08/23 06:39:37;;;;;;;20.63;18.63;;;16.90;99.90;;;;;;4939795;28;92310;-31
2022/08/23 06:42:06;;;;;;;20.15;17.52;;;16.90;99.90;;;;;;4947792;28;94709;-32
2022/08/23 06:44:33;;;;;;;19.70;17.80;;;17.00;99.90;;;;;;4939797;28;94368;-33
2022/08/23 06:46:59;;;;;;;23.05;18.55;;;17.20;99.90;;;;;;4942761;28;93674;-32
2022/08/23 06:49:26;;;;;;;20.60;18.67;;;17.20;99.90;;;;;;4932166;28;92990;-33
2022/08/23 06:51:55;;;;;;;26.45;18.40;;;17.30;99.90;;;;;;4932152;28;95474;-33
2022/08/23 06:54:23;;;;;;;21.00;19.08;;;17.50;99.90;;;;;;4938680;28;96012;-30
2022/08/23 06:56:49;;;;;;;34.50;20.42;;;17.60;99.90;;;;;;4932769;28;92773;-34
2022/08/23 06:59:16;;;;;;;20.58;18.70;;;17.80;99.90;;;;;;4942234;28;94161;-33
2022/08/23 07:01:41;;;;;;;20.73;18.65;;;17.90;99.90;;;;;;4942868;28;95324;-33
2022/08/23 07:04:09;;;;;;;19.98;18.05;;;18.10;99.90;;;;;;4940779;28;94616;-31
2022/08/23 07:06:35;;;;;;;18.83;17.13;;;18.40;99.90;;;;;;4938353;28;93857;-32
2022/08/23 07:09:02;;;;;;;16.38;14.85;;;18.60;99.90;;;;;;4937950;28;92610;-35
2022/08/23 07:11:30;;;;;;;19.20;17.45;;;18.90;99.90;;;;;;4938231;28;94734;-32
2022/08/23 07:13:59;;;;;;;86.30;27.67;;;19.20;99.90;;;;;;4938095;28;94408;-31
2022/08/23 07:16:24;;;;;;;21.52;19.35;;;19.50;99.90;;;;;;4937039;28;95159;-33
2022/08/23 07:18:51;;;;;;;19.90;17.80;;;19.80;99.90;;;;;;4938421;28;93081;-33
2022/08/23 07:21:18;;;;;;;19.92;18.00;;;20.00;99.90;;;;;;4938039;28;94839;-35
2022/08/23 07:23:44;;;;;;;18.30;16.48;;;20.20;99.90;;;;;;4937801;28;94319;-32
2022/08/23 07:26:12;;;;;;;18.23;16.85;;;20.50;99.90;;;;;;4936683;28;92647;-32
2022/08/23 07:28:40;;;;;;;18.10;16.25;;;20.70;99.90;;;;;;4936599;28;95166;-34
2022/08/23 07:31:13;;;;;;;17.88;16.08;;;20.90;99.90;;;;;;4938175;28;94867;-34
2022/08/23 07:33:40;;;;;;;17.50;15.68;;;21.20;99.90;;;;;;4937745;28;94769;-31
2022/08/23 07:36:07;;;;;;;17.85;14.55;;;21.40;99.90;;;;;;4936836;28;94489;-33
2022/08/23 07:38:34;;;;;;;16.57;15.13;;;21.60;99.90;;;;;;4937345;28;92282;-33
2022/08/23 07:41:00;;;;;;;15.25;13.95;;;21.80;99.90;;;;;;4936390;28;96022;-33
2022/08/23 07:43:26;;;;;;;15.18;13.98;;;22.00;99.90;;;;;;4937223;28;95342;-34
2022/08/23 07:45:51;;;;;;;16.00;14.32;;;22.10;99.90;;;;;;4938043;28;94563;-34
2022/08/23 07:48:17;;;;;;;15.25;13.57;;;22.20;99.90;;;;;;4936873;28;94700;-35
2022/08/23 07:50:51;;;;;;;12.80;11.48;;;22.40;99.90;;;;;;4923669;28;94591;-32
2022/08/23 07:53:17;;;;;;;14.23;13.00;;;22.60;99.90;;;;;;4937252;28;94872;-31
2022/08/23 07:55:42;;;;;;;12.43;11.48;;;22.70;99.90;;;;;;4937824;28;95175;-34
2022/08/23 07:58:08;;;;;;;11.88;10.88;;;22.70;99.90;;;;;;4937978;28;92476;-31
2022/08/23 08:00:33;;;;;;;14.13;12.73;;;22.80;99.90;;;;;;4937177;28;95272;-34
2022/08/23 08:02:59;;;;;;;12.68;11.52;;;23.00;99.90;;;;;;4936579;28;94945;-34
2022/08/23 08:05:25;;;;;;;11.75;10.85;;;23.20;99.90;;;;;;4936550;28;94494;-32
2022/08/23 08:07:50;;;;;;;12.38;11.25;;;23.30;99.90;;;;;;4937191;28;92168;-33
2022/08/23 08:10:16;;;;;;;11.60;10.55;;;23.40;99.90;;;;;;4936754;28;94379;-32
2022/08/23 08:12:42;;;;;;;10.82;9.60;;;23.60;99.90;;;;;;4937566;28;94739;-33
2022/08/23 08:15:08;;;;;;;12.27;10.90;;;23.80;99.90;;;;;;4937694;28;93129;-31
2022/08/23 08:17:34;;;;;;;10.57;9.60;;;24.10;99.90;;;;;;4936931;28;94260;-34
2022/08/23 08:19:59;;;;;;;12.35;10.98;;;24.20;99.90;;;;;;4937409;28;95121;-32
2022/08/23 08:22:25;;;;;;;10.85;9.85;;;24.30;99.90;;;;;;4936503;28;94390;-34
2022/08/23 08:24:50;;;;;;;10.40;9.40;;;24.40;99.90;;;;;;4938729;28;95021;-33
2022/08/23 08:27:16;;;;;;;10.40;9.60;;;24.50;99.90;;;;;;4937390;28;94206;-31
2022/08/23 08:29:42;;;;;;;9.82;9.00;;;24.70;99.90;;;;;;4936710;28;95761;-30
2022/08/23 08:32:08;;;;;;;10.48;9.02;;;24.80;99.90;;;;;;4937355;28;96607;-30
2022/08/23 08:34:34;;;;;;;10.80;9.75;;;24.90;99.90;;;;;;4937458;28;94863;-34
2022/08/23 08:37:00;;;;;;;10.65;9.45;;;25.00;99.90;;;;;;4938054;28;94381;-31
2022/08/23 08:39:28;;;;;;;13.18;9.80;;;25.10;99.90;;;;;;4936686;28;94940;-33
2022/08/23 08:42:25;;;;;;;10.68;9.77;;;25.00;99.90;;;;;;4936863;28;94754;-32
2022/08/23 08:44:55;;;;;;;13.55;9.50;;;25.10;99.90;;;;;;4937460;28;94453;-31
2022/08/23 08:47:33;;;;;;;10.93;9.90;;;25.20;99.90;;;;;;4937701;28;92817;-31
2022/08/23 08:50:04;;;;;;;10.35;9.02;;;25.20;99.90;;;;;;4927716;28;94482;-30
2022/08/23 08:52:38;;;;;;;9.80;8.90;;;25.30;99.90;;;;;;4935623;28;95102;-32
2022/08/23 08:55:13;;;;;;;8.85;8.07;;;25.40;99.90;;;;;;4940504;28;94480;-30
2022/08/23 08:57:42;;;;;;;10.25;9.02;;;25.40;99.90;;;;;;4939928;28;93010;-32
2022/08/23 09:00:13;;;;;;;9.75;8.95;;;25.20;99.90;;;;;;4940051;28;94552;-33
2022/08/23 09:02:40;;;;;;;10.60;9.68;;;25.10;99.90;;;;;;4940449;28;94729;-31
2022/08/23 09:05:14;;;;;;;11.00;10.03;;;25.00;99.90;;;;;;4941297;28;93679;-30
2022/08/23 09:07:51;;;;;;;13.63;10.25;;;24.90;99.90;;;;;;4939479;28;93006;-33
2022/08/23 09:10:29;;;;;;;;;;;24.90;99.90;;;;;;4939656;28;94796;-32
2022/08/23 09:13:36;;;;;;;9.23;8.43;;;24.90;99.90;;;;;;4941844;28;94466;-33
2022/08/23 09:16:43;;;;;;;10.02;9.07;;;25.20;99.90;;;;;;4917743;28;94765;-33
2022/08/23 09:19:09;;;;;;;12.85;10.10;;;25.40;99.90;;;;;;4917660;28;92283;-33
2022/08/23 09:21:47;;;;;;;10.82;9.93;;;25.60;99.90;;;;;;4923159;28;96011;-31
2022/08/23 09:24:13;;;;;;;10.65;9.63;;;25.80;99.90;;;;;;4940641;28;95940;-30
2022/08/23 09:26:38;;;;;;;9.70;8.90;;;25.90;99.90;;;;;;4940608;28;95170;-30
2022/08/23 09:29:17;;;;;;;9.50;8.63;;;26.00;99.90;;;;;;4940054;28;94576;-32
2022/08/23 09:31:49;;;;;;;9.52;7.78;;;26.20;99.90;;;;;;4940641;28;94849;-33
2022/08/23 09:34:20;;;;;;;9.40;8.48;;;26.30;99.90;;;;;;4939909;28;94686;-31
2022/08/23 09:36:46;;;;;;;10.70;9.70;;;26.50;99.90;;;;;;4940365;28;92394;-30
2022/08/23 09:39:30;;;;;;;9.10;8.27;;;26.50;99.90;;;;;;4940809;28;93085;-34
2022/08/23 09:41:56;;;;;;;8.00;7.28;;;26.60;99.90;;;;;;4939805;28;94643;-31
2022/08/23 09:44:42;;;;;;;9.55;8.02;;;26.60;99.90;;;;;;4940042;28;94128;-33
2022/08/23 09:47:14;;;;;;;10.75;8.23;;;26.60;99.90;;;;;;4940513;28;95567;-30
2022/08/23 09:49:42;;;;;;;7.40;6.70;;;26.70;99.90;;;;;;4932770;28;94535;-34
2022/08/23 09:52:31;;;;;;;7.20;6.50;;;26.80;99.90;;;;;;4934567;28;94479;-33
2022/08/23 09:55:10;;;;;;;6.65;6.13;;;26.90;99.90;;;;;;4940090;28;94596;-33
2022/08/23 09:57:36;;;;;;;6.03;5.53;;;27.00;99.90;;;;;;4939859;28;94352;-32
2022/08/23 10:00:21;;;;;;;6.28;5.68;;;27.10;99.90;;;;;;4940558;28;92258;-32
2022/08/23 10:02:47;;;;;;;7.25;5.72;;;27.20;99.90;;;;;;4939942;28;95554;-32
2022/08/23 10:05:39;;;;;;;7.50;6.55;;;27.30;99.90;;;;;;4940186;28;94480;-33
2022/08/23 10:08:05;;;;;;;6.80;4.88;;;27.40;99.90;;;;;;4924973;28;93705;-32
2022/08/23 10:10:46;;;;;;;4.75;4.45;;;27.50;99.90;;;;;;4939706;28;92616;-33
2022/08/23 10:13:13;;;;;;;6.32;5.82;;;27.50;90.40;;;;;;4938581;28;95592;-30
2022/08/23 10:15:39;;;;;;;7.07;5.60;;;27.50;82.00;;;;;;4940033;28;95687;-32
2022/08/23 10:18:17;;;;;;;7.85;6.22;;;27.50;96.00;;;;;;4939488;28;93933;-32
2022/08/23 10:21:16;;;;;;;6.72;5.88;;;27.60;91.50;;;;;;4939018;28;92719;-33
2022/08/23 10:23:47;;;;;;;5.82;5.30;;;27.60;92.60;;;;;;4927213;28;94821;-33
2022/08/23 10:26:25;;;;;;;6.68;5.82;;;27.70;88.80;;;;;;4939296;28;94817;-31
2022/08/23 10:32:39;;;;;;;4.85;4.45;;;27.70;88.40;;;;;;4896736;28;93985;-31
2022/08/23 10:35:31;;;;;;;7.50;5.10;;;27.80;84.40;;;;;;4894510;28;93414;-31
2022/08/23 10:38:22;;;;;;;4.78;4.38;;;27.90;76.60;;;;;;4933860;28;94349;-32
2022/08/23 10:41:25;;;;;;;6.13;5.50;;;28.00;79.40;;;;;;4939137;28;95958;-35
2022/08/23 10:44:06;;;;;;;7.20;6.55;;;28.10;77.00;;;;;;4939637;28;94076;-31
2022/08/23 10:46:39;;;;;;;6.10;5.50;;;28.00;84.20;;;;;;4938594;28;94645;-31
2022/08/23 10:49:06;;;;;;;9.00;5.72;;;28.00;81.50;;;;;;4935337;28;94177;-32
2022/08/23 10:51:43;;;;;;;16.83;4.70;;;28.00;90.50;;;;;;4929353;28;92193;-32
2022/08/23 10:54:33;;;;;;;4.22;3.83;;;28.00;75.00;;;;;;4939398;28;94762;-33
2022/08/23 10:57:00;;;;;;;7.25;4.57;;;28.10;70.90;;;;;;4938663;28;94598;-32
2022/08/23 10:59:27;;;;;;;5.40;4.72;;;28.20;70.70;;;;;;4939249;28;95008;-32
2022/08/23 11:02:22;;;;;;;5.47;5.00;;;28.30;72.50;;;;;;4939547;28;93502;-31
2022/08/23 11:05:27;;;;;;;4.65;4.25;;;28.40;69.60;;;;;;4925736;28;94616;-35
2022/08/23 11:08:01;;;;;;;4.85;4.45;;;28.40;69.30;;;;;;4938062;28;95847;-34
2022/08/23 11:10:32;;;;;;;4.85;4.38;;;28.50;67.00;;;;;;4938096;28;95862;-34
2022/08/23 11:13:06;;;;;;;5.57;5.03;;;28.50;67.70;;;;;;4938868;28;93943;-33
2022/08/23 11:15:47;;;;;;;4.78;4.30;;;28.60;68.60;;;;;;4937972;28;93041;-32
2022/08/23 11:18:45;;;;;;;5.05;4.55;;;28.70;67.00;;;;;;4937638;28;94969;-36
2022/08/23 11:21:16;;;;;;;6.03;5.28;;;28.70;64.20;;;;;;4937835;28;94504;-32
2022/08/23 11:23:48;;;;;;;4.53;4.10;;;28.70;63.40;;;;;;4939213;28;94607;-32
2022/08/23 11:26:25;;;;;;;6.82;4.13;;;28.50;65.30;;;;;;4938845;28;92543;-33
2022/08/23 11:29:06;;;;;;;4.35;4.00;;;28.50;63.50;;;;;;4938032;28;93668;-32
2022/08/23 11:31:39;;;;;;;5.25;4.85;;;28.40;65.80;;;;;;4938533;28;94581;-32
2022/08/23 11:34:28;;;;;;;5.55;4.45;;;28.50;63.70;;;;;;4952844;28;94374;-33
2022/08/23 11:37:19;;;;;;;5.75;4.43;;;28.50;63.30;;;;;;4937980;28;92274;-33
2022/08/23 11:40:08;;;;;;;4.00;3.60;;;28.60;64.60;;;;;;4936809;28;93710;-34
2022/08/23 11:42:37;;;;;;;5.32;4.03;;;28.60;62.70;;;;;;4937816;28;94404;-33
2022/08/23 11:45:20;;;;;;;5.35;4.95;;;28.50;61.00;;;;;;4937837;28;93833;-32
2022/08/23 11:47:52;;;;;;;4.78;4.32;;;28.50;61.70;;;;;;4938958;28;93408;-33
2022/08/23 11:50:30;;;;;;;5.32;3.97;;;28.60;63.10;;;;;;4924886;28;94451;-32
2022/08/23 11:53:17;;;;;;;5.75;4.22;;;28.70;62.90;;;;;;4925820;28;94345;-34
2022/08/23 11:56:04;;;;;;;5.57;4.43;;;28.80;59.80;;;;;;4938655;28;94861;-31
2022/08/23 11:58:45;;;;;;;6.00;4.40;;;28.80;59.30;;;;;;4938765;28;93159;-31
2022/08/23 12:01:12;;;;;;;4.70;4.22;;;28.80;60.20;;;;;;4937620;28;95591;-34
2022/08/23 12:03:51;;;;;;;5.20;4.70;;;28.70;59.30;;;;;;4938247;28;95617;-33
2022/08/23 12:06:23;;;;;;;6.30;4.45;;;28.70;59.70;;;;;;4938671;28;94006;-32
2022/08/23 12:08:55;;;;;;;5.28;4.78;;;28.70;58.60;;;;;;4937931;28;92721;-34
2022/08/23 12:11:24;;;;;;;4.63;4.22;;;28.60;61.30;;;;;;4937064;28;95162;-34
2022/08/23 12:13:59;;;;;;;5.00;4.30;;;28.60;60.50;;;;;;4938541;28;96054;-34
2022/08/23 12:16:31;;;;;;;5.22;4.28;;;28.60;60.60;;;;;;4938479;28;93790;-34
2022/08/23 12:19:01;;;;;;;5.90;4.53;;;28.50;60.40;;;;;;4938723;28;92278;-33
2022/08/23 12:21:40;;;;;;;5.03;4.28;;;28.60;61.80;;;;;;4937614;28;94937;-32
2022/08/23 12:24:17;;;;;;;4.82;3.72;;;28.60;61.60;;;;;;4937831;28;94657;-33
2022/08/23 12:26:58;;;;;;;4.85;4.35;;;28.60;62.30;;;;;;4937238;28;94985;-35
2022/08/23 12:29:52;;;;;;;5.40;4.90;;;28.70;62.50;;;;;;4972815;22;92700;-34
2022/08/23 12:32:32;;;;;;;7.72;4.65;;;28.70;63.20;;;;;;4926661;28;94905;-34
2022/08/23 12:35:26;;;;;;;4.53;4.13;;;28.80;62.10;;;;;;4937422;28;95311;-31
2022/08/23 12:38:05;;;;;;;5.60;4.35;;;28.90;61.70;;;;;;4937610;28;92658;-34
2022/08/23 12:40:38;;;;;;;7.03;4.95;;;29.00;61.10;;;;;;4937631;28;94269;-33
2022/08/23 12:43:09;;;;;;;11.00;4.47;;;29.10;59.20;;;;;;4937283;28;94606;-36
2022/08/23 12:45:44;;;;;;;6.75;5.25;;;29.00;59.40;;;;;;4937281;28;94283;-35
2022/08/23 12:48:12;;;;;;;6.90;5.60;;;29.00;58.80;;;;;;4937562;28;92652;-33
2022/08/23 12:50:42;;;;;;;6.28;3.92;;;29.00;58.50;;;;;;4923303;28;94231;-33
2022/08/23 12:53:15;;;;;;;5.93;5.43;;;28.90;58.90;;;;;;4936809;28;96054;-33
2022/08/23 12:55:46;;;;;;;4.72;4.32;;;29.00;57.90;;;;;;4937105;28;94204;-32
2022/08/23 12:58:14;;;;;;;5.53;5.03;;;29.00;58.60;;;;;;4938179;28;93908;-35
2022/08/23 13:00:52;;;;;;;9.38;4.68;;;29.00;58.10;;;;;;4937577;28;94407;-33
2022/08/23 13:03:27;;;;;;;5.20;4.18;;;29.00;57.80;;;;;;4937195;28;95834;-33
2022/08/23 13:06:12;;;;;;;5.55;4.78;;;29.00;57.50;;;;;;4937031;28;94593;-32